sensor_id;sensor_type;location;lat;lon;timestamp;pressure;altitude;pressure_sealevel;temperature;humidity
57572;BME280;44459;43.522;24.470;2023-06-14T00:00:36;99925.09;;;17.08;100.00
57572;BME280;44459;43.522;24.470;2023-06-14T00:03:04;99932.22;;;17.08;100.00
57572;BME280;44459;43.522;24.470;2023-06-14T00:05:29;99918.94;;;17.06;100.00
57572;BME280;44459;43.522;24.470;2023-06-14T00:07:57;99923.34;;;17.07;100.00
57572;BME280;44459;43.522;24.470;2023-06-14T00:10:25;99918.94;;;17.06;100.00
57572;BME280;44459;43.522;24.470;2023-06-14T00:12:56;99911.75;;;17.08;100.00
57572;BME280;44459;43.522;24.470;2023-06-14T00:15:21;99916.09;;;17.13;100.00
57572;BME280;44459;43.522;24.470;2023-06-14T00:17:46;99923.19;;;17.14;100.00
57572;BME280;44459;43.522;24.470;2023-06-14T00:20:12;99914.34;;;17.11;100.00
57572;BME280;44459;43.522;24.470;2023-06-14T00:22:38;99908.94;;;17.15;100.00
57572;BME280;44459;43.522;24.470;2023-06-14T00:25:04;99905.44;;;17.13;100.00
57572;BME280;44459;43.522;24.470;2023-06-14T00:27:30;99923.19;;;17.14;100.00
57572;BME280;44459;43.522;24.470;2023-06-14T00:29:55;99910.81;;;17.11;100.00
57572;BME280;44459;43.522;24.470;2023-06-14T00:32:23;99911.66;;;17.11;100.00
57572;BME280;44459;43.522;24.470;2023-06-14T00:34:51;99901.13;;;17.07;100.00
57572;BME280;44459;43.522;24.470;2023-06-14T00:37:16;99911.00;;;17.03;100.00
57572;BME280;44459;43.522;24.470;2023-06-14T00:39:42;99913.69;;;17.02;100.00
57572;BME280;44459;43.522;24.470;2023-06-14T00:42:07;99913.78;;;16.99;100.00
57572;BME280;44459;43.522;24.470;2023-06-14T00:44:33;99910.31;;;16.95;100.00
57572;BME280;44459;43.522;24.470;2023-06-14T00:46:58;99912.00;;;16.99;100.00
57572;BME280;44459;43.522;24.470;2023-06-14T00:49:24;99909.31;;;16.99;100.00
57572;BME280;44459;43.522;24.470;2023-06-14T00:51:49;99916.34;;;17.03;100.00
57572;BME280;44459;43.522;24.470;2023-06-14T00:54:15;99917.28;;;17.01;100.00
57572;BME280;44459;43.522;24.470;2023-06-14T00:56:43;99906.75;;;16.95;100.00
57572;BME280;44459;43.522;24.470;2023-06-14T00:59:09;99908.59;;;16.93;100.00
57572;BME280;44459;43.522;24.470;2023-06-14T01:01:36;99904.22;;;16.90;100.00
57572;BME280;44459;43.522;24.470;2023-06-14T01:04:02;99909.59;;;16.89;100.00
57572;BME280;44459;43.522;24.470;2023-06-14T01:09:12;99912.50;;;16.80;100.00
57572;BME280;44459;43.522;24.470;2023-06-14T01:14:25;99905.66;;;16.68;100.00
57572;BME280;44459;43.522;24.470;2023-06-14T01:16:53;99895.97;;;16.66;100.00
57572;BME280;44459;43.522;24.470;2023-06-14T01:19:20;99888.00;;;16.63;100.00
57572;BME280;44459;43.522;24.470;2023-06-14T01:21:48;99894.91;;;16.71;100.00
57572;BME280;44459;43.522;24.470;2023-06-14T01:24:16;99898.38;;;16.75;100.00
57572;BME280;44459;43.522;24.470;2023-06-14T01:26:41;99897.44;;;16.77;100.00
57572;BME280;44459;43.522;24.470;2023-06-14T01:29:11;99896.56;;;16.77;100.00
57572;BME280;44459;43.522;24.470;2023-06-14T01:31:43;99892.25;;;16.71;100.00
57572;BME280;44459;43.522;24.470;2023-06-14T01:34:09;99893.22;;;16.69;100.00
57572;BME280;44459;43.522;24.470;2023-06-14T01:36:36;99898.53;;;16.69;100.00
57572;BME280;44459;43.522;24.470;2023-06-14T01:39:03;99904.75;;;16.69;100.00
57572;BME280;44459;43.522;24.470;2023-06-14T01:41:31;99899.47;;;16.66;100.00
57572;BME280;44459;43.522;24.470;2023-06-14T01:43:57;99901.28;;;16.66;100.00
57572;BME280;44459;43.522;24.470;2023-06-14T01:46:23;99883.63;;;16.60;100.00
57572;BME280;44459;43.522;24.470;2023-06-14T01:48:50;99892.50;;;16.62;100.00
57572;BME280;44459;43.522;24.470;2023-06-14T01:51:15;99888.09;;;16.59;100.00
57572;BME280;44459;43.522;24.470;2023-06-14T01:53:40;99897.81;;;16.62;100.00
57572;BME280;44459;43.522;24.470;2023-06-14T01:56:07;99889.94;;;16.57;100.00
57572;BME280;44459;43.522;24.470;2023-06-14T01:58:32;99897.75;;;16.65;100.00
57572;BME280;44459;43.522;24.470;2023-06-14T02:00:58;99895.97;;;16.66;100.00
57572;BME280;44459;43.522;24.470;2023-06-14T02:03:25;99900.28;;;16.70;100.00
57572;BME280;44459;43.522;24.470;2023-06-14T02:05:51;99900.22;;;16.73;100.00
57572;BME280;44459;43.522;24.470;2023-06-14T02:08:17;99908.22;;;16.73;100.00
57572;BME280;44459;43.522;24.470;2023-06-14T02:10:43;99899.38;;;16.71;100.00
57572;BME280;44459;43.522;24.470;2023-06-14T02:13:08;99900.41;;;16.65;100.00
57572;BME280;44459;43.522;24.470;2023-06-14T02:15:34;99906.56;;;16.67;100.00
57572;BME280;44459;43.522;24.470;2023-06-14T02:18:01;99902.22;;;16.63;100.00
57572;BME280;44459;43.522;24.470;2023-06-14T02:20:27;99909.28;;;16.66;100.00
57572;BME280;44459;43.522;24.470;2023-06-14T02:22:53;99911.06;;;16.65;100.00
57572;BME280;44459;43.522;24.470;2023-06-14T02:25:19;99910.13;;;16.66;100.00
57572;BME280;44459;43.522;24.470;2023-06-14T02:27:44;99914.63;;;16.64;100.00
57572;BME280;44459;43.522;24.470;2023-06-14T02:30:10;99911.97;;;16.64;100.00
57572;BME280;44459;43.522;24.470;2023-06-14T02:32:36;99911.94;;;16.66;100.00
57572;BME280;44459;43.522;24.470;2023-06-14T02:35:02;99915.47;;;16.66;100.00
57572;BME280;44459;43.522;24.470;2023-06-14T02:37:27;99919.16;;;16.62;100.00
57572;BME280;44459;43.522;24.470;2023-06-14T02:39:53;99927.97;;;16.64;100.00
57572;BME280;44459;43.522;24.470;2023-06-14T02:42:18;99918.41;;;16.52;100.00
57572;BME280;44459;43.522;24.470;2023-06-14T02:44:44;99919.28;;;16.54;100.00
57572;BME280;44459;43.522;24.470;2023-06-14T02:47:11;99930.81;;;16.55;100.00
57572;BME280;44459;43.522;24.470;2023-06-14T02:49:37;99922.09;;;16.48;100.00
57572;BME280;44459;43.522;24.470;2023-06-14T02:52:02;99928.41;;;16.44;100.00
57572;BME280;44459;43.522;24.470;2023-06-14T02:54:28;99931.16;;;16.40;100.00
57572;BME280;44459;43.522;24.470;2023-06-14T02:56:53;99940.03;;;16.40;100.00
57572;BME280;44459;43.522;24.470;2023-06-14T02:59:19;99934.84;;;16.34;100.00
57572;BME280;44459;43.522;24.470;2023-06-14T03:01:46;99938.13;;;16.45;100.00
57572;BME280;44459;43.522;24.470;2023-06-14T03:04:12;99931.94;;;16.45;100.00
57572;BME280;44459;43.522;24.470;2023-06-14T03:06:37;99937.19;;;16.48;100.00
57572;BME280;44459;43.522;24.470;2023-06-14T03:09:04;99945.06;;;16.52;100.00
57572;BME280;44459;43.522;24.470;2023-06-14T03:11:31;99948.56;;;16.57;100.00
57572;BME280;44459;43.522;24.470;2023-06-14T03:13:57;99952.13;;;16.55;100.00
57572;BME280;44459;43.522;24.470;2023-06-14T03:16:22;99945.00;;;16.58;100.00
57572;BME280;44459;43.522;24.470;2023-06-14T03:18:50;99953.91;;;16.56;100.00
57572;BME280;44459;43.522;24.470;2023-06-14T03:21:16;99959.13;;;16.62;100.00
57572;BME280;44459;43.522;24.470;2023-06-14T03:23:43;99965.19;;;16.69;100.00
57572;BME280;44459;43.522;24.470;2023-06-14T03:26:08;99950.19;;;16.63;100.00
57572;BME280;44459;43.522;24.470;2023-06-14T03:28:34;99951.00;;;16.67;100.00
57572;BME280;44459;43.522;24.470;2023-06-14T03:30:59;99949.13;;;16.70;100.00
57572;BME280;44459;43.522;24.470;2023-06-14T03:33:25;99953.47;;;16.76;100.00
57572;BME280;44459;43.522;24.470;2023-06-14T03:35:51;99957.84;;;16.78;100.00
57572;BME280;44459;43.522;24.470;2023-06-14T03:38:17;99962.13;;;16.85;100.00
57572;BME280;44459;43.522;24.470;2023-06-14T03:40:42;99966.50;;;16.88;100.00
57572;BME280;44459;43.522;24.470;2023-06-14T03:43:07;99962.03;;;16.88;100.00
57572;BME280;44459;43.522;24.470;2023-06-14T03:45:33;99953.97;;;16.91;100.00
57572;BME280;44459;43.522;24.470;2023-06-14T03:47:58;99953.81;;;16.97;100.00
57572;BME280;44459;43.522;24.470;2023-06-14T03:50:26;99965.22;;;17.04;100.00
57572;BME280;44459;43.522;24.470;2023-06-14T03:52:52;99967.75;;;17.08;100.00
57572;BME280;44459;43.522;24.470;2023-06-14T03:55:17;99957.09;;;17.08;100.00
57572;BME280;44459;43.522;24.470;2023-06-14T03:57:43;99962.31;;;17.13;100.00
57572;BME280;44459;43.522;24.470;2023-06-14T04:00:09;99964.03;;;17.16;100.00
57572;BME280;44459;43.522;24.470;2023-06-14T04:02:35;99964.81;;;17.19;100.00
57572;BME280;44459;43.522;24.470;2023-06-14T04:05:02;99963.94;;;17.19;100.00
57572;BME280;44459;43.522;24.470;2023-06-14T04:07:28;99964.81;;;17.19;100.00
57572;BME280;44459;43.522;24.470;2023-06-14T04:09:54;99973.56;;;17.26;100.00
57572;BME280;44459;43.522;24.470;2023-06-14T04:12:19;99970.88;;;17.26;100.00
57572;BME280;44459;43.522;24.470;2023-06-14T04:14:45;99980.47;;;17.34;100.00
57572;BME280;44459;43.522;24.470;2023-06-14T04:17:11;99984.00;;;17.35;100.00
57572;BME280;44459;43.522;24.470;2023-06-14T04:19:36;99982.22;;;17.35;100.00
57572;BME280;44459;43.522;24.470;2023-06-14T04:22:02;99986.53;;;17.41;100.00
57572;BME280;44459;43.522;24.470;2023-06-14T04:24:28;99977.59;;;17.42;100.00
57572;BME280;44459;43.522;24.470;2023-06-14T04:27:00;99987.34;;;17.43;100.00
57572;BME280;44459;43.522;24.470;2023-06-14T04:29:28;99982.97;;;17.40;100.00
57572;BME280;44459;43.522;24.470;2023-06-14T04:31:55;99984.91;;;17.34;100.00
57572;BME280;44459;43.522;24.470;2023-06-14T04:34:27;99985.81;;;17.34;100.00
57572;BME280;44459;43.522;24.470;2023-06-14T04:36:58;99991.84;;;17.41;100.00
57572;BME280;44459;43.522;24.470;2023-06-14T04:39:25;99989.06;;;17.45;100.00
57572;BME280;44459;43.522;24.470;2023-06-14T04:41:51;99987.22;;;17.47;100.00
57572;BME280;44459;43.522;24.470;2023-06-14T04:44:24;99996.84;;;17.54;100.00
57572;BME280;44459;43.522;24.470;2023-06-14T04:46:57;99997.50;;;17.64;100.00
57572;BME280;44459;43.522;24.470;2023-06-14T04:49:24;99994.81;;;17.64;100.00
57572;BME280;44459;43.522;24.470;2023-06-14T04:51:49;99984.84;;;17.71;100.00
57572;BME280;44459;43.522;24.470;2023-06-14T04:54:23;99988.50;;;17.68;100.00
57572;BME280;44459;43.522;24.470;2023-06-14T04:56:50;99984.81;;;17.72;100.00
57572;BME280;44459;43.522;24.470;2023-06-14T04:59:16;99996.38;;;17.73;100.00
57572;BME280;44459;43.522;24.470;2023-06-14T05:01:42;100002.63;;;17.73;100.00
57572;BME280;44459;43.522;24.470;2023-06-14T05:04:13;99999.97;;;17.72;100.00
57572;BME280;44459;43.522;24.470;2023-06-14T05:06:38;99998.25;;;17.69;100.00
57572;BME280;44459;43.522;24.470;2023-06-14T05:09:04;100004.41;;;17.73;100.00
57572;BME280;44459;43.522;24.470;2023-06-14T05:11:29;100007.09;;;17.71;100.00
57572;BME280;44459;43.522;24.470;2023-06-14T05:13:54;100009.81;;;17.70;100.00
57572;BME280;44459;43.522;24.470;2023-06-14T05:16:20;100002.75;;;17.67;100.00
57572;BME280;44459;43.522;24.470;2023-06-14T05:18:48;100011.47;;;17.74;100.00
57572;BME280;44459;43.522;24.470;2023-06-14T05:21:13;100006.06;;;17.77;100.00
57572;BME280;44459;43.522;24.470;2023-06-14T05:23:43;100008.50;;;17.84;100.00
57572;BME280;44459;43.522;24.470;2023-06-14T05:26:09;100016.31;;;17.93;100.00
57572;BME280;44459;43.522;24.470;2023-06-14T05:28:35;100018.69;;;18.02;100.00
57572;BME280;44459;43.522;24.470;2023-06-14T05:31:01;100007.03;;;18.05;100.00
57572;BME280;44459;43.522;24.470;2023-06-14T05:33:26;100006.09;;;18.07;100.00
57572;BME280;44459;43.522;24.470;2023-06-14T05:35:52;100015.72;;;18.13;100.00
57572;BME280;44459;43.522;24.470;2023-06-14T05:38:17;100019.19;;;18.17;100.00
57572;BME280;44459;43.522;24.470;2023-06-14T05:40:42;100019.31;;;18.12;100.00
57572;BME280;44459;43.522;24.470;2023-06-14T05:43:08;100017.31;;;18.20;100.00
57572;BME280;44459;43.522;24.470;2023-06-14T05:45:33;100016.25;;;18.26;100.00
57572;BME280;44459;43.522;24.470;2023-06-14T05:47:59;100012.47;;;18.33;100.00
57572;BME280;44459;43.522;24.470;2023-06-14T05:50:24;100013.34;;;18.35;100.00
57572;BME280;44459;43.522;24.470;2023-06-14T05:52:50;100015.91;;;18.38;100.00
57572;BME280;44459;43.522;24.470;2023-06-14T05:55:18;100028.31;;;18.40;100.00
57572;BME280;44459;43.522;24.470;2023-06-14T05:57:44;100036.16;;;18.46;100.00
57572;BME280;44459;43.522;24.470;2023-06-14T06:00:10;100039.63;;;18.50;100.00
57572;BME280;44459;43.522;24.470;2023-06-14T06:02:45;100044.94;;;18.51;100.00
57572;BME280;44459;43.522;24.470;2023-06-14T06:05:13;100042.06;;;18.59;100.00
57572;BME280;44459;43.522;24.470;2023-06-14T06:07:39;100048.31;;;18.58;100.00
57572;BME280;44459;43.522;24.470;2023-06-14T06:10:09;100044.72;;;18.59;100.00
57572;BME280;44459;43.522;24.470;2023-06-14T06:12:35;100045.75;;;18.55;100.00
57572;BME280;44459;43.522;24.470;2023-06-14T06:15:00;100035.28;;;18.46;100.00
57572;BME280;44459;43.522;24.470;2023-06-14T06:17:26;100039.06;;;18.39;100.00
57572;BME280;44459;43.522;24.470;2023-06-14T06:19:51;100043.47;;;18.40;100.00
57572;BME280;44459;43.522;24.470;2023-06-14T06:22:17;100036.28;;;18.42;100.00
57572;BME280;44459;43.522;24.470;2023-06-14T06:24:43;100045.09;;;18.45;100.00
57572;BME280;44459;43.522;24.470;2023-06-14T06:27:08;100032.78;;;18.40;100.00
57572;BME280;44459;43.522;24.470;2023-06-14T06:29:34;100044.03;;;18.52;100.00
57572;BME280;44459;43.522;24.470;2023-06-14T06:32:00;100039.25;;;18.64;100.00
57572;BME280;44459;43.522;24.470;2023-06-14T06:34:25;100042.56;;;18.72;100.00
57572;BME280;44459;43.522;24.470;2023-06-14T06:36:51;100044.00;;;18.83;100.00
57572;BME280;44459;43.522;24.470;2023-06-14T06:39:16;100041.97;;;18.91;100.00
57572;BME280;44459;43.522;24.470;2023-06-14T06:41:42;100047.31;;;18.91;100.00
57572;BME280;44459;43.522;24.470;2023-06-14T06:44:07;100051.63;;;18.95;100.00
57572;BME280;44459;43.522;24.470;2023-06-14T06:46:35;100049.59;;;19.03;100.00
57572;BME280;44459;43.522;24.470;2023-06-14T06:49:00;100056.81;;;19.01;100.00
57572;BME280;44459;43.522;24.470;2023-06-14T06:51:26;100061.31;;;18.99;100.00
57572;BME280;44459;43.522;24.470;2023-06-14T06:53:54;100070.78;;;19.11;100.00
57572;BME280;44459;43.522;24.470;2023-06-14T06:56:21;100067.75;;;19.22;100.00
57572;BME280;44459;43.522;24.470;2023-06-14T06:58:49;100071.16;;;19.27;100.00
57572;BME280;44459;43.522;24.470;2023-06-14T07:01:15;100065.78;;;19.27;100.00
57572;BME280;44459;43.522;24.470;2023-06-14T07:03:41;100070.03;;;19.34;100.00
57572;BME280;44459;43.522;24.470;2023-06-14T07:06:06;100065.34;;;19.40;100.00
57572;BME280;44459;43.522;24.470;2023-06-14T07:08:32;100069.72;;;19.44;100.00
57572;BME280;44459;43.522;24.470;2023-06-14T07:10:57;100067.19;;;19.40;100.00
57572;BME280;44459;43.522;24.470;2023-06-14T07:13:23;100077.75;;;19.44;100.00
57572;BME280;44459;43.522;24.470;2023-06-14T07:15:48;100075.75;;;19.51;100.00
57572;BME280;44459;43.522;24.470;2023-06-14T07:18:14;100078.41;;;19.51;100.00
57572;BME280;44459;43.522;24.470;2023-06-14T07:20:39;100070.13;;;19.58;100.00
57572;BME280;44459;43.522;24.470;2023-06-14T07:23:05;100080.34;;;19.74;100.00
57572;BME280;44459;43.522;24.470;2023-06-14T07:25:31;100076.31;;;19.87;97.68
57572;BME280;44459;43.522;24.470;2023-06-14T07:27:56;100058.59;;;19.83;97.76
57572;BME280;44459;43.522;24.470;2023-06-14T07:30:22;100063.75;;;19.89;97.39
57572;BME280;44459;43.522;24.470;2023-06-14T07:32:51;100061.06;;;19.89;97.86
57572;BME280;44459;43.522;24.470;2023-06-14T07:35:17;100060.78;;;19.96;96.53
57572;BME280;44459;43.522;24.470;2023-06-14T07:37:43;100057.75;;;20.07;95.92
57572;BME280;44459;43.522;24.470;2023-06-14T07:40:09;100063.84;;;20.12;96.75
57572;BME280;44459;43.522;24.470;2023-06-14T07:42:35;100067.78;;;20.27;95.85
57572;BME280;44459;43.522;24.470;2023-06-14T07:45:04;100059.13;;;20.19;94.15
57572;BME280;44459;43.522;24.470;2023-06-14T07:47:29;100060.47;;;20.32;94.08
57572;BME280;44459;43.522;24.470;2023-06-14T07:49:55;100054.94;;;20.36;98.60
57572;BME280;44459;43.522;24.470;2023-06-14T07:52:20;100063.91;;;20.58;97.56
57572;BME280;44459;43.522;24.470;2023-06-14T07:54:46;100066.78;;;20.77;91.84
57572;BME280;44459;43.522;24.470;2023-06-14T07:57:11;100064.97;;;21.01;92.71
57572;BME280;44459;43.522;24.470;2023-06-14T07:59:37;100064.16;;;21.22;89.84
57572;BME280;44459;43.522;24.470;2023-06-14T08:02:02;100075.66;;;21.26;88.38
57572;BME280;44459;43.522;24.470;2023-06-14T08:04:28;100075.28;;;21.13;89.59
57572;BME280;44459;43.522;24.470;2023-06-14T08:06:53;100075.88;;;20.96;89.88
57572;BME280;44459;43.522;24.470;2023-06-14T08:09:19;100080.84;;;20.84;90.43
57572;BME280;44459;43.522;24.470;2023-06-14T08:11:44;100082.06;;;20.98;90.99
57572;BME280;44459;43.522;24.470;2023-06-14T08:14:10;100093.22;;;21.11;88.84
57572;BME280;44459;43.522;24.470;2023-06-14T08:16:36;100087.66;;;21.17;88.29
57572;BME280;44459;43.522;24.470;2023-06-14T08:19:01;100089.88;;;21.28;89.21
57572;BME280;44459;43.522;24.470;2023-06-14T08:21:27;100088.38;;;21.42;91.09
57572;BME280;44459;43.522;24.470;2023-06-14T08:23:57;100088.97;;;21.50;91.23
57572;BME280;44459;43.522;24.470;2023-06-14T08:26:22;100095.53;;;21.65;88.41
57572;BME280;44459;43.522;24.470;2023-06-14T08:28:48;100090.69;;;21.73;88.86
57572;BME280;44459;43.522;24.470;2023-06-14T08:31:14;100099.03;;;21.87;89.18
57572;BME280;44459;43.522;24.470;2023-06-14T08:33:39;100109.66;;;21.92;85.55
57572;BME280;44459;43.522;24.470;2023-06-14T08:36:08;100102.69;;;21.86;86.80
57572;BME280;44459;43.522;24.470;2023-06-14T08:38:33;100102.28;;;21.75;87.70
57572;BME280;44459;43.522;24.470;2023-06-14T08:41:00;100101.88;;;21.63;85.67
57572;BME280;44459;43.522;24.470;2023-06-14T08:43:26;100111.78;;;21.62;89.77
57572;BME280;44459;43.522;24.470;2023-06-14T08:45:58;100102.53;;;21.47;87.79
57572;BME280;44459;43.522;24.470;2023-06-14T08:48:26;100116.13;;;21.43;91.43
57572;BME280;44459;43.522;24.470;2023-06-14T08:50:56;100122.22;;;21.48;88.68
57572;BME280;44459;43.522;24.470;2023-06-14T08:53:33;100123.50;;;21.38;89.58
57572;BME280;44459;43.522;24.470;2023-06-14T08:56:01;100128.13;;;21.34;90.06
57572;BME280;44459;43.522;24.470;2023-06-14T08:58:31;100119.31;;;21.31;89.47
57572;BME280;44459;43.522;24.470;2023-06-14T09:01:01;100114.69;;;21.34;89.89
57572;BME280;44459;43.522;24.470;2023-06-14T09:03:27;100124.09;;;21.23;91.77
57572;BME280;44459;43.522;24.470;2023-06-14T09:05:58;100116.97;;;21.22;89.98
57572;BME280;44459;43.522;24.470;2023-06-14T09:08:29;100115.13;;;21.24;91.42
57572;BME280;44459;43.522;24.470;2023-06-14T09:10:56;100116.63;;;21.31;88.88
57572;BME280;44459;43.522;24.470;2023-06-14T09:13:22;100118.56;;;21.27;88.97
57572;BME280;44459;43.522;24.470;2023-06-14T09:15:47;100108.25;;;21.17;89.71
57572;BME280;44459;43.522;24.470;2023-06-14T09:18:13;100109.03;;;21.19;89.07
57572;BME280;44459;43.522;24.470;2023-06-14T09:20:38;100113.81;;;21.34;89.83
57572;BME280;44459;43.522;24.470;2023-06-14T09:23:05;100113.44;;;21.43;87.50
57572;BME280;44459;43.522;24.470;2023-06-14T09:25:30;100098.38;;;21.39;87.38
57572;BME280;44459;43.522;24.470;2023-06-14T09:27:56;100109.00;;;21.42;87.66
57572;BME280;44459;43.522;24.470;2023-06-14T09:30:21;100105.38;;;21.43;90.34
57572;BME280;44459;43.522;24.470;2023-06-14T09:32:47;100118.97;;;21.62;86.55
57572;BME280;44459;43.522;24.470;2023-06-14T09:35:12;100112.53;;;21.66;85.57
57572;BME280;44459;43.522;24.470;2023-06-14T09:37:42;100105.63;;;21.80;86.12
57572;BME280;44459;43.522;24.470;2023-06-14T09:40:08;100109.78;;;21.87;85.76
57572;BME280;44459;43.522;24.470;2023-06-14T09:42:33;100105.63;;;21.80;86.34
57572;BME280;44459;43.522;24.470;2023-06-14T09:45:02;100117.19;;;21.82;88.66
57572;BME280;44459;43.522;24.470;2023-06-14T09:47:27;100118.41;;;21.97;88.16
57572;BME280;44459;43.522;24.470;2023-06-14T09:49:54;100112.53;;;22.07;87.93
57572;BME280;44459;43.522;24.470;2023-06-14T09:52:21;100096.50;;;22.26;88.30
57572;BME280;44459;43.522;24.470;2023-06-14T09:54:48;100105.56;;;22.44;83.83
57572;BME280;44459;43.522;24.470;2023-06-14T09:57:21;100101.22;;;22.41;83.86
57572;BME280;44459;43.522;24.470;2023-06-14T09:59:47;100105.72;;;22.41;82.91
57572;BME280;44459;43.522;24.470;2023-06-14T10:02:21;100100.16;;;22.45;85.01
57572;BME280;44459;43.522;24.470;2023-06-14T10:05:05;100102.81;;;22.66;85.09
57572;BME280;44459;43.522;24.470;2023-06-14T10:07:35;100105.44;;;22.67;82.07
57572;BME280;44459;43.522;24.470;2023-06-14T10:10:04;100101.34;;;22.79;83.45
57572;BME280;44459;43.522;24.470;2023-06-14T10:12:31;100102.56;;;22.72;80.35
57572;BME280;44459;43.522;24.470;2023-06-14T10:14:57;100094.69;;;22.67;85.92
57572;BME280;44459;43.522;24.470;2023-06-14T10:22:52;100084.16;;;23.19;78.64
57572;BME280;44459;43.522;24.470;2023-06-14T10:25:27;100074.72;;;23.29;75.98
57572;BME280;44459;43.522;24.470;2023-06-14T10:28:20;100081.63;;;23.53;80.84
57572;BME280;44459;43.522;24.470;2023-06-14T10:33:34;100072.13;;;24.16;77.51
57572;BME280;44459;43.522;24.470;2023-06-14T10:39:07;100073.13;;;24.81;72.63
57572;BME280;44459;43.522;24.470;2023-06-14T10:41:40;100081.97;;;24.84;69.64
57572;BME280;44459;43.522;24.470;2023-06-14T10:46:52;100067.09;;;25.24;67.05
57572;BME280;44459;43.522;24.470;2023-06-14T10:49:40;100063.88;;;25.18;67.55
57572;BME280;44459;43.522;24.470;2023-06-14T10:52:09;100071.81;;;25.21;66.95
57572;BME280;44459;43.522;24.470;2023-06-14T10:54:37;100066.84;;;24.97;69.82
57572;BME280;44459;43.522;24.470;2023-06-14T10:57:06;100064.25;;;25.12;68.76
57572;BME280;44459;43.522;24.470;2023-06-14T10:59:32;100053.06;;;25.18;71.59
57572;BME280;44459;43.522;24.470;2023-06-14T11:05:04;100054.47;;;25.72;69.53
57572;BME280;44459;43.522;24.470;2023-06-14T11:07:58;100058.06;;;25.86;67.90
57572;BME280;44459;43.522;24.470;2023-06-14T11:12:54;100055.28;;;25.88;67.01
57572;BME280;44459;43.522;24.470;2023-06-14T11:15:20;100055.19;;;25.44;64.82
57572;BME280;44459;43.522;24.470;2023-06-14T11:17:52;100059.59;;;25.14;67.14
57572;BME280;44459;43.522;24.470;2023-06-14T11:20:25;100055.94;;;24.66;67.32
57572;BME280;44459;43.522;24.470;2023-06-14T11:22:52;100058.13;;;24.42;69.10
57572;BME280;44459;43.522;24.470;2023-06-14T11:25:17;100053.16;;;24.18;70.85
57572;BME280;44459;43.522;24.470;2023-06-14T11:27:43;100047.53;;;24.05;70.46
57572;BME280;44459;43.522;24.470;2023-06-14T11:30:09;100046.09;;;23.98;72.01
57572;BME280;44459;43.522;24.470;2023-06-14T11:32:36;100041.34;;;24.20;70.79
57572;BME280;44459;43.522;24.470;2023-06-14T11:35:05;100030.34;;;24.40;69.70
57572;BME280;44459;43.522;24.470;2023-06-14T11:37:31;100034.06;;;24.55;71.96
57572;BME280;44459;43.522;24.470;2023-06-14T11:40:00;100025.66;;;24.77;71.42
57572;BME280;44459;43.522;24.470;2023-06-14T11:42:27;100025.53;;;25.11;68.11
57572;BME280;44459;43.522;24.470;2023-06-14T11:44:54;100023.28;;;25.50;67.42
57572;BME280;44459;43.522;24.470;2023-06-14T11:47:20;100012.09;;;25.86;74.79
57572;BME280;44459;43.522;24.470;2023-06-14T11:49:46;100018.38;;;26.17;66.77
57572;BME280;44459;43.522;24.470;2023-06-14T11:52:12;100014.00;;;26.44;66.66
57572;BME280;44459;43.522;24.470;2023-06-14T11:54:38;100013.31;;;26.69;67.69
57572;BME280;44459;43.522;24.470;2023-06-14T11:57:08;100008.75;;;26.83;63.07
57572;BME280;44459;43.522;24.470;2023-06-14T11:59:37;100005.88;;;26.72;60.55
57572;BME280;44459;43.522;24.470;2023-06-14T12:02:04;100007.97;;;26.67;59.79
57572;BME280;44459;43.522;24.470;2023-06-14T12:04:29;99994.44;;;26.67;60.11
57572;BME280;44459;43.522;24.470;2023-06-14T12:06:55;99994.06;;;26.87;65.60
57572;BME280;44459;43.522;24.470;2023-06-14T12:09:23;99990.34;;;27.02;59.91
57572;BME280;44459;43.522;24.470;2023-06-14T12:11:51;99993.44;;;27.11;59.53
57572;BME280;44459;43.522;24.470;2023-06-14T12:14:28;99991.47;;;27.27;57.90
57572;BME280;44459;43.522;24.470;2023-06-14T12:17:04;99995.25;;;27.24;57.00
57572;BME280;44459;43.522;24.470;2023-06-14T12:19:31;99986.91;;;27.27;58.56
57572;BME280;44459;43.522;24.470;2023-06-14T12:21:59;99993.88;;;27.31;59.96
57572;BME280;44459;43.522;24.470;2023-06-14T12:24:28;99985.81;;;27.30;58.94
57572;BME280;44459;43.522;24.470;2023-06-14T12:26:54;99974.47;;;27.11;58.45
57572;BME280;44459;43.522;24.470;2023-06-14T12:29:19;99973.47;;;26.85;60.95
57572;BME280;44459;43.522;24.470;2023-06-14T12:31:45;99968.91;;;26.71;58.69
57572;BME280;44459;43.522;24.470;2023-06-14T12:34:10;99971.91;;;26.52;60.21
57572;BME280;44459;43.522;24.470;2023-06-14T12:36:36;99968.84;;;26.59;59.11
57572;BME280;44459;43.522;24.470;2023-06-14T12:39:07;99960.13;;;26.53;59.17
57572;BME280;44459;43.522;24.470;2023-06-14T12:41:33;99957.22;;;26.57;61.53
57572;BME280;44459;43.522;24.470;2023-06-14T12:43:59;99954.56;;;26.83;62.04
57572;BME280;44459;43.522;24.470;2023-06-14T12:46:26;99958.75;;;27.16;59.16
57572;BME280;44459;43.522;24.470;2023-06-14T12:48:52;99944.22;;;27.43;59.93
57572;BME280;44459;43.522;24.470;2023-06-14T12:51:17;99959.94;;;27.65;56.60
57572;BME280;44459;43.522;24.470;2023-06-14T12:53:42;99943.06;;;27.87;57.93
57572;BME280;44459;43.522;24.470;2023-06-14T12:56:09;99930.47;;;27.98;54.21
57572;BME280;44459;43.522;24.470;2023-06-14T12:58:34;99939.38;;;28.26;54.08
57572;BME280;44459;43.522;24.470;2023-06-14T13:01:00;99942.09;;;28.26;51.63